sensor_id;sensor_type;location;lat;lon;timestamp;pressure;altitude;pressure_sealevel;temperature;humidity
73594;BME280;64760;53.404;23.498;2022-12-07T00:01:08;98951.84;;;-1.65;95.43
73594;BME280;64760;53.404;23.498;2022-12-07T00:03:36;98950.44;;;-1.69;94.92
73594;BME280;64760;53.404;23.498;2022-12-07T00:06:04;98948.66;;;-1.68;95.39
73594;BME280;64760;53.404;23.498;2022-12-07T00:08:31;98950.16;;;-1.66;95.19
73594;BME280;64760;53.404;23.498;2022-12-07T00:11:16;98927.63;;;-1.78;95.30
73594;BME280;64760;53.404;23.498;2022-12-07T00:13:43;98939.94;;;-1.69;95.37
73594;BME280;64760;53.404;23.498;2022-12-07T00:16:15;98933.31;;;-1.73;95.28
73594;BME280;64760;53.404;23.498;2022-12-07T00:18:43;98914.78;;;-1.81;94.93
73594;BME280;64760;53.404;23.498;2022-12-07T00:23:37;98940.78;;;-1.68;95.01
73594;BME280;64760;53.404;23.498;2022-12-07T00:26:09;98942.28;;;-1.66;95.47
73594;BME280;64760;53.404;23.498;2022-12-07T00:28:36;98921.69;;;-1.80;95.25
73594;BME280;64760;53.404;23.498;2022-12-07T00:31:08;98918.25;;;-1.80;95.51
73594;BME280;64760;53.404;23.498;2022-12-07T00:33:35;98912.84;;;-1.88;95.18
73594;BME280;64760;53.404;23.498;2022-12-07T00:36:03;98942.97;;;-1.73;95.38
73594;BME280;64760;53.404;23.498;2022-12-07T00:38:31;98934.84;;;-1.80;95.37
73594;BME280;64760;53.404;23.498;2022-12-07T00:41:00;98904.00;;;-1.97;95.29
73594;BME280;64760;53.404;23.498;2022-12-07T00:46:26;98916.69;;;-1.83;95.39
73594;BME280;64760;53.404;23.498;2022-12-07T00:48:53;98919.78;;;-1.87;95.33
73594;BME280;64760;53.404;23.498;2022-12-07T00:51:23;98906.63;;;-1.78;95.38
73594;BME280;64760;53.404;23.498;2022-12-07T00:53:51;98926.09;;;-1.61;94.97
73594;BME280;64760;53.404;23.498;2022-12-07T00:56:19;98916.00;;;-1.66;94.83
73594;BME280;64760;53.404;23.498;2022-12-07T00:58:51;98912.84;;;-1.69;95.17
73594;BME280;64760;53.404;23.498;2022-12-07T01:01:17;98909.53;;;-1.71;95.17
73594;BME280;64760;53.404;23.498;2022-12-07T01:03:43;98896.25;;;-1.70;94.67
73594;BME280;64760;53.404;23.498;2022-12-07T01:06:14;98871.81;;;-1.80;94.88
73594;BME280;64760;53.404;23.498;2022-12-07T01:08:40;98877.59;;;-1.76;94.77
73594;BME280;64760;53.404;23.498;2022-12-07T01:11:09;98878.81;;;-1.71;94.80
73594;BME280;64760;53.404;23.498;2022-12-07T01:13:35;98857.28;;;-1.84;94.90
73594;BME280;64760;53.404;23.498;2022-12-07T01:16:05;98868.88;;;-1.77;94.86
73594;BME280;64760;53.404;23.498;2022-12-07T01:18:34;98857.69;;;-1.79;94.61
73594;BME280;64760;53.404;23.498;2022-12-07T01:21:02;98831.88;;;-1.83;94.56
73594;BME280;64760;53.404;23.498;2022-12-07T01:29:35;98862.09;;;-1.60;94.65
73594;BME280;64760;53.404;23.498;2022-12-07T01:32:01;98882.13;;;-1.59;94.58
73594;BME280;64760;53.404;23.498;2022-12-07T01:34:27;98866.09;;;-1.66;94.86
73594;BME280;64760;53.404;23.498;2022-12-07T01:36:54;98849.97;;;-1.80;94.72
73594;BME280;64760;53.404;23.498;2022-12-07T01:39:20;98829.06;;;-1.82;94.41
73594;BME280;64760;53.404;23.498;2022-12-07T01:41:46;98861.91;;;-1.49;94.56
73594;BME280;64760;53.404;23.498;2022-12-07T01:44:25;98863.03;;;-1.52;94.19
73594;BME280;64760;53.404;23.498;2022-12-07T01:47:00;98829.47;;;-1.67;94.26
73594;BME280;64760;53.404;23.498;2022-12-07T01:49:31;98851.16;;;-1.56;93.93
73594;BME280;64760;53.404;23.498;2022-12-07T01:52:23;98855.28;;;-1.53;94.07
73594;BME280;64760;53.404;23.498;2022-12-07T01:54:56;98832.19;;;-1.59;93.76
73594;BME280;64760;53.404;23.498;2022-12-07T01:57:24;98838.16;;;-1.67;93.61
73594;BME280;64760;53.404;23.498;2022-12-07T01:59:51;98813.91;;;-1.88;93.99
73594;BME280;64760;53.404;23.498;2022-12-07T02:02:23;98822.44;;;-1.86;94.33
73594;BME280;64760;53.404;23.498;2022-12-07T02:04:52;98806.44;;;-1.93;94.47
73594;BME280;64760;53.404;23.498;2022-12-07T02:07:20;98835.41;;;-1.75;94.82
73594;BME280;64760;53.404;23.498;2022-12-07T02:09:46;98836.78;;;-1.71;94.92
73594;BME280;64760;53.404;23.498;2022-12-07T02:12:12;98830.72;;;-1.71;94.72
73594;BME280;64760;53.404;23.498;2022-12-07T02:14:38;98807.78;;;-1.79;94.55
73594;BME280;64760;53.404;23.498;2022-12-07T02:17:16;98828.66;;;-1.68;94.62
73594;BME280;64760;53.404;23.498;2022-12-07T02:26:13;98814.41;;;-1.65;94.37
73594;BME280;64760;53.404;23.498;2022-12-07T02:31:33;98802.75;;;-1.63;94.50
73594;BME280;64760;53.404;23.498;2022-12-07T02:34:09;98797.56;;;-1.72;94.47
73594;BME280;64760;53.404;23.498;2022-12-07T02:36:44;98804.59;;;-1.63;94.36
73594;BME280;64760;53.404;23.498;2022-12-07T02:39:39;98797.97;;;-1.67;94.21
73594;BME280;64760;53.404;23.498;2022-12-07T02:42:14;98782.88;;;-1.75;94.23
73594;BME280;64760;53.404;23.498;2022-12-07T02:44:43;98796.97;;;-1.66;94.54
73594;BME280;64760;53.404;23.498;2022-12-07T02:47:12;98770.03;;;-1.78;94.80
73594;BME280;64760;53.404;23.498;2022-12-07T02:49:40;98784.25;;;-1.71;94.52
73594;BME280;64760;53.404;23.498;2022-12-07T02:52:07;98774.63;;;-1.80;94.72
73594;BME280;64760;53.404;23.498;2022-12-07T02:54:34;98772.97;;;-1.81;95.05
73594;BME280;64760;53.404;23.498;2022-12-07T02:57:22;98789.38;;;-1.79;95.09
73594;BME280;64760;53.404;23.498;2022-12-07T03:00:05;98781.50;;;-1.79;95.07
73594;BME280;64760;53.404;23.498;2022-12-07T03:07:51;98775.00;;;-1.75;95.13
73594;BME280;64760;53.404;23.498;2022-12-07T03:16:53;98743.44;;;-2.02;95.33
73594;BME280;64760;53.404;23.498;2022-12-07T03:19:23;98777.63;;;-1.75;95.37
73594;BME280;64760;53.404;23.498;2022-12-07T03:22:01;98750.28;;;-1.82;95.33
73594;BME280;64760;53.404;23.498;2022-12-07T03:27:35;98736.50;;;-1.84;95.48
73594;BME280;64760;53.404;23.498;2022-12-07T03:30:08;98729.28;;;-1.82;95.11
73594;BME280;64760;53.404;23.498;2022-12-07T03:35:13;98744.59;;;-1.68;95.06
73594;BME280;64760;53.404;23.498;2022-12-07T03:37:56;98737.53;;;-1.67;95.11
73594;BME280;64760;53.404;23.498;2022-12-07T03:40:37;98713.09;;;-1.77;95.08
73594;BME280;64760;53.404;23.498;2022-12-07T03:43:05;98711.59;;;-1.80;95.29
73594;BME280;64760;53.404;23.498;2022-12-07T03:45:44;98707.72;;;-1.76;95.27
73594;BME280;64760;53.404;23.498;2022-12-07T03:48:37;98714.69;;;-1.67;95.53
73594;BME280;64760;53.404;23.498;2022-12-07T03:51:24;98723.00;;;-1.62;95.60
73594;BME280;64760;53.404;23.498;2022-12-07T03:54:02;98717.06;;;-1.64;95.39
73594;BME280;64760;53.404;23.498;2022-12-07T03:56:34;98699.78;;;-1.66;95.24
73594;BME280;64760;53.404;23.498;2022-12-07T03:59:00;98695.53;;;-1.77;95.63
73594;BME280;64760;53.404;23.498;2022-12-07T04:01:27;98709.84;;;-1.62;95.46
73594;BME280;64760;53.404;23.498;2022-12-07T04:03:53;98685.69;;;-1.75;95.38
73594;BME280;64760;53.404;23.498;2022-12-07T04:06:19;98699.63;;;-1.65;95.36
73594;BME280;64760;53.404;23.498;2022-12-07T04:08:45;98711.34;;;-1.59;95.47
73594;BME280;64760;53.404;23.498;2022-12-07T04:11:12;98693.69;;;-1.67;95.46
73594;BME280;64760;53.404;23.498;2022-12-07T04:13:38;98692.81;;;-1.58;95.59
73594;BME280;64760;53.404;23.498;2022-12-07T04:16:24;98704.56;;;-1.52;95.22
73594;BME280;64760;53.404;23.498;2022-12-07T04:18:52;98699.44;;;-1.54;95.22
73594;BME280;64760;53.404;23.498;2022-12-07T04:21:18;98682.75;;;-1.62;95.83
73594;BME280;64760;53.404;23.498;2022-12-07T04:23:45;98677.66;;;-1.64;95.40
73594;BME280;64760;53.404;23.498;2022-12-07T04:26:11;98683.97;;;-1.57;95.86
73594;BME280;64760;53.404;23.498;2022-12-07T04:28:37;98657.06;;;-1.68;95.52
73594;BME280;64760;53.404;23.498;2022-12-07T04:31:04;98645.63;;;-1.77;95.89
73594;BME280;64760;53.404;23.498;2022-12-07T04:33:30;98665.34;;;-1.63;95.98
73594;BME280;64760;53.404;23.498;2022-12-07T04:35:56;98678.56;;;-1.55;96.47
73594;BME280;64760;53.404;23.498;2022-12-07T04:38:23;98665.28;;;-1.54;96.20
73594;BME280;64760;53.404;23.498;2022-12-07T04:40:49;98666.66;;;-1.50;96.58
73594;BME280;64760;53.404;23.498;2022-12-07T04:43:15;98657.41;;;-1.54;96.58
73594;BME280;64760;53.404;23.498;2022-12-07T04:45:48;98642.38;;;-1.61;96.57
73594;BME280;64760;53.404;23.498;2022-12-07T04:48:17;98650.88;;;-1.50;96.32
73594;BME280;64760;53.404;23.498;2022-12-07T04:50:48;98646.91;;;-1.54;96.45
73594;BME280;64760;53.404;23.498;2022-12-07T04:53:15;98629.38;;;-1.63;96.29
73594;BME280;64760;53.404;23.498;2022-12-07T04:56:00;98646.22;;;-1.56;96.26
73594;BME280;64760;53.404;23.498;2022-12-07T04:58:26;98642.25;;;-1.60;96.73
73594;BME280;64760;53.404;23.498;2022-12-07T05:00:56;98654.47;;;-1.51;96.43
73594;BME280;64760;53.404;23.498;2022-12-07T05:03:22;98635.16;;;-1.59;96.61
73594;BME280;64760;53.404;23.498;2022-12-07T05:05:48;98639.31;;;-1.57;96.82
73594;BME280;64760;53.404;23.498;2022-12-07T05:08:14;98624.13;;;-1.63;96.63
73594;BME280;64760;53.404;23.498;2022-12-07T05:10:41;98626.31;;;-1.58;96.64
73594;BME280;64760;53.404;23.498;2022-12-07T05:13:07;98640.91;;;-1.46;96.81
73594;BME280;64760;53.404;23.498;2022-12-07T05:15:33;98634.53;;;-1.44;96.76
73594;BME280;64760;53.404;23.498;2022-12-07T05:17:59;98632.88;;;-1.45;96.56
73594;BME280;64760;53.404;23.498;2022-12-07T05:20:26;98622.50;;;-1.46;96.65
73594;BME280;64760;53.404;23.498;2022-12-07T05:22:52;98636.34;;;-1.44;97.07
73594;BME280;64760;53.404;23.498;2022-12-07T05:25:20;98622.69;;;-1.48;96.96
73594;BME280;64760;53.404;23.498;2022-12-07T05:27:46;98604.47;;;-1.59;97.15
73594;BME280;64760;53.404;23.498;2022-12-07T05:30:13;98608.19;;;-1.52;97.03
73594;BME280;64760;53.404;23.498;2022-12-07T05:32:39;98608.84;;;-1.50;97.28
73594;BME280;64760;53.404;23.498;2022-12-07T05:35:06;98622.38;;;-1.45;97.15
73594;BME280;64760;53.404;23.498;2022-12-07T05:37:32;98611.16;;;-1.47;96.84
73594;BME280;64760;53.404;23.498;2022-12-07T05:39:58;98623.28;;;-1.36;96.83
73594;BME280;64760;53.404;23.498;2022-12-07T05:42:24;98601.03;;;-1.42;96.90
73594;BME280;64760;53.404;23.498;2022-12-07T05:44:51;98615.25;;;-1.34;96.59
73594;BME280;64760;53.404;23.498;2022-12-07T05:47:20;98618.38;;;-1.31;96.98
73594;BME280;64760;53.404;23.498;2022-12-07T05:49:50;98600.59;;;-1.37;96.83
73594;BME280;64760;53.404;23.498;2022-12-07T05:52:16;98598.28;;;-1.40;96.73
73594;BME280;64760;53.404;23.498;2022-12-07T05:54:42;98586.94;;;-1.40;96.73
73594;BME280;64760;53.404;23.498;2022-12-07T05:57:08;98613.00;;;-1.29;97.04
73594;BME280;64760;53.404;23.498;2022-12-07T05:59:37;98608.13;;;-1.24;96.50
73594;BME280;64760;53.404;23.498;2022-12-07T06:02:11;98607.13;;;-1.23;96.82
73594;BME280;64760;53.404;23.498;2022-12-07T06:04:42;98589.34;;;-1.29;96.74
73594;BME280;64760;53.404;23.498;2022-12-07T06:07:09;98589.03;;;-1.26;96.92
73594;BME280;64760;53.404;23.498;2022-12-07T06:09:36;98607.13;;;-1.23;97.02
73594;BME280;64760;53.404;23.498;2022-12-07T06:12:04;98608.13;;;-1.24;97.24
73594;BME280;64760;53.404;23.498;2022-12-07T06:15:09;98593.25;;;-1.33;97.08
73594;BME280;64760;53.404;23.498;2022-12-07T06:17:36;98615.84;;;-1.23;97.22
73594;BME280;64760;53.404;23.498;2022-12-07T06:20:03;98580.09;;;-1.33;97.56
73594;BME280;64760;53.404;23.498;2022-12-07T06:22:29;98602.41;;;-1.20;97.63
73594;BME280;64760;53.404;23.498;2022-12-07T06:24:55;98594.22;;;-1.17;97.15
73594;BME280;64760;53.404;23.498;2022-12-07T06:27:22;98581.16;;;-1.26;97.35
73594;BME280;64760;53.404;23.498;2022-12-07T06:29:48;98595.19;;;-1.18;97.33
73594;BME280;64760;53.404;23.498;2022-12-07T06:32:14;98574.53;;;-1.30;97.09
73594;BME280;64760;53.404;23.498;2022-12-07T06:34:59;98581.53;;;-1.21;97.56
73594;BME280;64760;53.404;23.498;2022-12-07T06:37:25;98583.63;;;-1.25;97.70
73594;BME280;64760;53.404;23.498;2022-12-07T06:39:52;98594.06;;;-1.15;97.56
73594;BME280;64760;53.404;23.498;2022-12-07T06:42:18;98596.25;;;-1.11;97.67
73594;BME280;64760;53.404;23.498;2022-12-07T06:44:44;98575.59;;;-1.23;97.68
73594;BME280;64760;53.404;23.498;2022-12-07T06:47:10;98580.25;;;-1.17;97.50
73594;BME280;64760;53.404;23.498;2022-12-07T06:49:37;98582.75;;;-1.16;97.55
73594;BME280;64760;53.404;23.498;2022-12-07T06:52:03;98564.09;;;-1.22;97.45
73594;BME280;64760;53.404;23.498;2022-12-07T06:54:31;98554.56;;;-1.23;97.42
73594;BME280;64760;53.404;23.498;2022-12-07T06:56:57;98585.13;;;-1.05;97.56
73594;BME280;64760;53.404;23.498;2022-12-07T06:59:23;98567.19;;;-1.09;97.70
73594;BME280;64760;53.404;23.498;2022-12-07T07:01:49;98557.94;;;-1.13;97.67
73594;BME280;64760;53.404;23.498;2022-12-07T07:04:15;98554.03;;;-1.09;97.26
73594;BME280;64760;53.404;23.498;2022-12-07T07:06:42;98571.75;;;-0.93;97.84
73594;BME280;64760;53.404;23.498;2022-12-07T07:09:09;98565.00;;;-0.96;97.72
73594;BME280;64760;53.404;23.498;2022-12-07T07:11:35;98571.94;;;-0.87;97.51
73594;BME280;64760;53.404;23.498;2022-12-07T07:14:01;98568.53;;;-0.79;97.46
73594;BME280;64760;53.404;23.498;2022-12-07T07:16:29;98548.28;;;-0.87;97.27
73594;BME280;64760;53.404;23.498;2022-12-07T07:18:57;98559.09;;;-0.72;97.17
73594;BME280;64760;53.404;23.498;2022-12-07T07:21:23;98538.13;;;-0.82;97.14
73594;BME280;64760;53.404;23.498;2022-12-07T07:23:49;98534.91;;;-0.76;96.83
73594;BME280;64760;53.404;23.498;2022-12-07T07:26:15;98546.75;;;-0.72;96.57
73594;BME280;64760;53.404;23.498;2022-12-07T07:28:42;98563.25;;;-0.62;96.55
73594;BME280;64760;53.404;23.498;2022-12-07T07:31:08;98543.34;;;-0.64;96.46
73594;BME280;64760;53.404;23.498;2022-12-07T07:33:35;98537.56;;;-0.68;96.19
73594;BME280;64760;53.404;23.498;2022-12-07T07:36:00;98528.34;;;-0.72;96.26
73594;BME280;64760;53.404;23.498;2022-12-07T07:38:27;98534.41;;;-0.71;95.82
73594;BME280;64760;53.404;23.498;2022-12-07T07:40:53;98525.53;;;-0.70;95.78
73594;BME280;64760;53.404;23.498;2022-12-07T07:43:19;98535.28;;;-0.63;95.67
73594;BME280;64760;53.404;23.498;2022-12-07T07:45:45;98549.13;;;-0.61;96.18
73594;BME280;64760;53.404;23.498;2022-12-07T07:48:12;98517.59;;;-0.78;95.81
73594;BME280;64760;53.404;23.498;2022-12-07T07:50:38;98525.91;;;-0.65;95.92
73594;BME280;64760;53.404;23.498;2022-12-07T07:53:04;98539.44;;;-0.60;96.02
73594;BME280;64760;53.404;23.498;2022-12-07T07:55:30;98542.56;;;-0.57;95.88
73594;BME280;64760;53.404;23.498;2022-12-07T07:57:57;98531.34;;;-0.59;96.01
73594;BME280;64760;53.404;23.498;2022-12-07T08:00:23;98537.13;;;-0.55;96.40
73594;BME280;64760;53.404;23.498;2022-12-07T08:02:49;98514.41;;;-0.64;96.13
73594;BME280;64760;53.404;23.498;2022-12-07T08:05:16;98529.94;;;-0.53;96.11
73594;BME280;64760;53.404;23.498;2022-12-07T08:07:44;98532.25;;;-0.50;95.80
73594;BME280;64760;53.404;23.498;2022-12-07T08:10:12;98524.66;;;-0.53;96.33
73594;BME280;64760;53.404;23.498;2022-12-07T08:12:41;98524.81;;;-0.55;95.87
73594;BME280;64760;53.404;23.498;2022-12-07T08:15:29;98539.34;;;-0.42;95.67
73594;BME280;64760;53.404;23.498;2022-12-07T08:17:56;98514.28;;;-0.55;96.27
73594;BME280;64760;53.404;23.498;2022-12-07T08:20:22;98540.88;;;-0.40;96.21
73594;BME280;64760;53.404;23.498;2022-12-07T08:22:49;98525.22;;;-0.41;95.89
73594;BME280;64760;53.404;23.498;2022-12-07T08:25:15;98518.75;;;-0.47;95.57
73594;BME280;64760;53.404;23.498;2022-12-07T08:27:41;98538.41;;;-0.33;95.67
73594;BME280;64760;53.404;23.498;2022-12-07T08:30:08;98530.53;;;-0.33;95.74
73594;BME280;64760;53.404;23.498;2022-12-07T08:32:34;98524.59;;;-0.27;95.42
73594;BME280;64760;53.404;23.498;2022-12-07T08:35:00;98486.34;;;-0.48;95.75
73594;BME280;64760;53.404;23.498;2022-12-07T08:37:27;98527.28;;;-0.19;95.47
73594;BME280;64760;53.404;23.498;2022-12-07T08:39:54;98520.06;;;-0.17;95.57
73594;BME280;64760;53.404;23.498;2022-12-07T08:42:23;98504.88;;;-0.23;95.36
73594;BME280;64760;53.404;23.498;2022-12-07T08:44:53;98519.25;;;-0.10;94.92
73594;BME280;64760;53.404;23.498;2022-12-07T08:47:20;98503.94;;;-0.14;95.27
73594;BME280;64760;53.404;23.498;2022-12-07T08:49:47;98513.34;;;-0.04;95.31
73594;BME280;64760;53.404;23.498;2022-12-07T08:52:15;98501.00;;;-0.03;94.95
73594;BME280;64760;53.404;23.498;2022-12-07T08:54:42;98513.88;;;0.08;94.74
73594;BME280;64760;53.404;23.498;2022-12-07T08:57:09;98493.31;;;0.04;94.41
73594;BME280;64760;53.404;23.498;2022-12-07T08:59:36;98505.34;;;0.14;94.64
73594;BME280;64760;53.404;23.498;2022-12-07T09:02:05;98481.97;;;0.11;94.37
73594;BME280;64760;53.404;23.498;2022-12-07T09:04:31;98494.50;;;0.25;94.74
73594;BME280;64760;53.404;23.498;2022-12-07T09:06:58;98475.22;;;0.17;94.06
73594;BME280;64760;53.404;23.498;2022-12-07T09:09:24;98475.06;;;0.18;94.30
73594;BME280;64760;53.404;23.498;2022-12-07T09:11:50;98495.66;;;0.31;94.07
73594;BME280;64760;53.404;23.498;2022-12-07T09:14:17;98489.56;;;0.30;93.90
73594;BME280;64760;53.404;23.498;2022-12-07T09:16:43;98459.41;;;0.17;94.12
73594;BME280;64760;53.404;23.498;2022-12-07T09:19:09;98487.09;;;0.37;94.17
73594;BME280;64760;53.404;23.498;2022-12-07T09:21:36;98484.66;;;0.43;94.03
73594;BME280;64760;53.404;23.498;2022-12-07T09:24:02;98475.75;;;0.44;93.63
73594;BME280;64760;53.404;23.498;2022-12-07T09:26:29;98475.44;;;0.47;93.67
73594;BME280;64760;53.404;23.498;2022-12-07T09:28:55;98454.34;;;0.39;93.60
73594;BME280;64760;53.404;23.498;2022-12-07T09:31:21;98453.69;;;0.45;93.03
73594;BME280;64760;53.404;23.498;2022-12-07T09:33:53;98461.75;;;0.52;93.71
73594;BME280;64760;53.404;23.498;2022-12-07T09:36:20;98461.75;;;0.60;93.25
73594;BME280;64760;53.404;23.498;2022-12-07T09:38:46;98453.34;;;0.57;93.45
73594;BME280;64760;53.404;23.498;2022-12-07T09:41:13;98462.91;;;0.58;93.13
73594;BME280;64760;53.404;23.498;2022-12-07T09:43:41;98453.34;;;0.48;93.15
73594;BME280;64760;53.404;23.498;2022-12-07T09:46:13;98430.09;;;0.36;92.89
73594;BME280;64760;53.404;23.498;2022-12-07T09:48:40;98453.34;;;0.48;93.48
73594;BME280;64760;53.404;23.498;2022-12-07T09:51:16;98448.41;;;0.45;93.22
73594;BME280;64760;53.404;23.498;2022-12-07T09:53:43;98455.00;;;0.50;93.18
73594;BME280;64760;53.404;23.498;2022-12-07T09:56:15;98449.56;;;0.51;93.08
73594;BME280;64760;53.404;23.498;2022-12-07T09:58:43;98430.94;;;0.36;93.19
73594;BME280;64760;53.404;23.498;2022-12-07T10:01:17;98450.41;;;0.52;93.18
73594;BME280;64760;53.404;23.498;2022-12-07T10:03:53;98442.78;;;0.57;93.04
73594;BME280;64760;53.404;23.498;2022-12-07T10:06:20;98425.16;;;0.49;92.79
73594;BME280;64760;53.404;23.498;2022-12-07T10:08:46;98417.44;;;0.47;92.59
73594;BME280;64760;53.404;23.498;2022-12-07T10:11:15;98422.88;;;0.54;92.33
73594;BME280;64760;53.404;23.498;2022-12-07T10:13:44;98423.84;;;0.45;92.83
73594;BME280;64760;53.404;23.498;2022-12-07T10:18:54;98427.16;;;0.55;93.52
73594;BME280;64760;53.404;23.498;2022-12-07T10:21:25;98427.66;;;0.67;93.26
73594;BME280;64760;53.404;23.498;2022-12-07T10:29:18;98433.41;;;0.78;92.59
73594;BME280;64760;53.404;23.498;2022-12-07T10:31:53;98406.72;;;0.65;92.56
73594;BME280;64760;53.404;23.498;2022-12-07T10:34:30;98420.03;;;0.72;92.89
73594;BME280;64760;53.404;23.498;2022-12-07T10:42:26;98422.19;;;0.76;92.35
73594;BME280;64760;53.404;23.498;2022-12-07T10:45:15;98412.66;;;0.75;92.42
73594;BME280;64760;53.404;23.498;2022-12-07T10:50:32;98416.91;;;0.68;92.78
73594;BME280;64760;53.404;23.498;2022-12-07T10:53:30;98426.81;;;0.66;93.13
73594;BME280;64760;53.404;23.498;2022-12-07T10:59:00;98419.25;;;0.71;93.32
73594;BME280;64760;53.404;23.498;2022-12-07T11:04:40;98413.66;;;0.58;93.43
73594;BME280;64760;53.404;23.498;2022-12-07T11:10:18;98407.41;;;0.51;93.43
73594;BME280;64760;53.404;23.498;2022-12-07T11:13:19;98409.53;;;0.56;93.75
73594;BME280;64760;53.404;23.498;2022-12-07T11:17:09;98402.94;;;0.52;93.71
73594;BME280;64760;53.404;23.498;2022-12-07T11:21:58;98379.22;;;0.35;94.05
73594;BME280;64760;53.404;23.498;2022-12-07T11:24:53;98394.53;;;0.48;94.21
73594;BME280;64760;53.404;23.498;2022-12-07T11:27:38;98396.38;;;0.39;94.38
73594;BME280;64760;53.404;23.498;2022-12-07T11:30:19;98393.06;;;0.45;94.56
73594;BME280;64760;53.404;23.498;2022-12-07T11:33:19;98391.41;;;0.36;94.29
73594;BME280;64760;53.404;23.498;2022-12-07T11:38:18;98391.25;;;0.30;94.92
73594;BME280;64760;53.404;23.498;2022-12-07T11:40:50;98342.50;;;0.10;95.08
73594;BME280;64760;53.404;23.498;2022-12-07T11:43:23;98370.31;;;0.20;94.69
73594;BME280;64760;53.404;23.498;2022-12-07T11:46:00;98374.28;;;0.24;95.00
73594;BME280;64760;53.404;23.498;2022-12-07T11:48:37;98375.78;;;0.27;94.66
73594;BME280;64760;53.404;23.498;2022-12-07T11:51:07;98359.78;;;0.28;94.77
73594;BME280;64760;53.404;23.498;2022-12-07T11:53:40;98352.22;;;0.17;95.05
73594;BME280;64760;53.404;23.498;2022-12-07T11:56:17;98381.88;;;0.27;95.03
73594;BME280;64760;53.404;23.498;2022-12-07T11:58:54;98371.81;;;0.31;95.38
73594;BME280;64760;53.404;23.498;2022-12-07T12:04:01;98373.63;;;0.30;95.81
73594;BME280;64760;53.404;23.498;2022-12-07T12:06:28;98345.81;;;0.12;95.41
73594;BME280;64760;53.404;23.498;2022-12-07T12:09:33;98366.69;;;0.29;95.30
73594;BME280;64760;53.404;23.498;2022-12-07T12:14:57;98366.38;;;0.40;95.53
73594;BME280;64760;53.404;23.498;2022-12-07T12:17:39;98358.81;;;0.29;95.18
73594;BME280;64760;53.404;23.498;2022-12-07T12:20:36;98358.31;;;0.34;95.14
73594;BME280;64760;53.404;23.498;2022-12-07T12:23:27;98351.72;;;0.30;95.34
73594;BME280;64760;53.404;23.498;2022-12-07T12:26:02;98356.50;;;0.26;95.14
73594;BME280;64760;53.404;23.498;2022-12-07T12:28:40;98346.13;;;0.17;95.53
73594;BME280;64760;53.404;23.498;2022-12-07T12:31:14;98353.53;;;0.21;95.59
73594;BME280;64760;53.404;23.498;2022-12-07T12:33:51;98355.19;;;0.22;95.59
73594;BME280;64760;53.404;23.498;2022-12-07T12:41:55;98342.00;;;0.14;95.88
73594;BME280;64760;53.404;23.498;2022-12-07T12:54:32;98329.50;;;0.00;96.13
73594;BME280;64760;53.404;23.498;2022-12-07T13:02:32;98345.28;;;0.08;96.29
73594;BME280;64760;53.404;23.498;2022-12-07T13:15:40;98345.31;;;-0.08;97.17
73594;BME280;64760;53.404;23.498;2022-12-07T13:37:02;98320.75;;;-0.33;97.63
73594;BME280;64760;53.404;23.498;2022-12-07T13:39:35;98344.00;;;-0.12;97.98
73594;BME280;64760;53.404;23.498;2022-12-07T13:44:52;98344.28;;;-0.15;98.01
73594;BME280;64760;53.404;23.498;2022-12-07T13:49:53;98320.75;;;-0.33;97.96
73594;BME280;64760;53.404;23.498;2022-12-07T13:52:26;98346.28;;;-0.17;98.00
73594;BME280;64760;53.404;23.498;2022-12-07T13:57:28;98338.69;;;-0.28;98.58
73594;BME280;64760;53.404;23.498;2022-12-07T13:59:57;98331.63;;;-0.36;98.62
73594;BME280;64760;53.404;23.498;2022-12-07T14:02:29;98330.78;;;-0.44;98.33
73594;BME280;64760;53.404;23.498;2022-12-07T14:05:30;98355.31;;;-0.20;98.21
73594;BME280;64760;53.404;23.498;2022-12-07T14:07:56;98358.78;;;-0.19;98.17
73594;BME280;64760;53.404;23.498;2022-12-07T14:10:31;98340.81;;;-0.32;98.18
73594;BME280;64760;53.404;23.498;2022-12-07T14:12:59;98355.50;;;-0.21;98.39
73594;BME280;64760;53.404;23.498;2022-12-07T14:15:34;98352.16;;;-0.31;98.49
73594;BME280;64760;53.404;23.498;2022-12-07T14:18:02;98334.41;;;-0.37;98.79
73594;BME280;64760;53.404;23.498;2022-12-07T14:20:40;98352.81;;;-0.37;98.58
73594;BME280;64760;53.404;23.498;2022-12-07T14:23:24;98333.41;;;-0.44;98.62
73594;BME280;64760;53.404;23.498;2022-12-07T14:25:52;98346.72;;;-0.38;98.52
73594;BME280;64760;53.404;23.498;2022-12-07T14:28:35;98351.34;;;-0.40;98.95
73594;BME280;64760;53.404;23.498;2022-12-07T14:31:03;98356.28;;;-0.37;98.90
73594;BME280;64760;53.404;23.498;2022-12-07T14:33:29;98346.22;;;-0.50;99.09
73594;BME280;64760;53.404;23.498;2022-12-07T14:35:56;98352.69;;;-0.36;99.14
73594;BME280;64760;53.404;23.498;2022-12-07T14:38:24;98352.81;;;-0.45;98.79
73594;BME280;64760;53.404;23.498;2022-12-07T14:40:52;98349.19;;;-0.44;99.31
73594;BME280;64760;53.404;23.498;2022-12-07T14:43:19;98337.63;;;-0.60;99.43
73594;BME280;64760;53.404;23.498;2022-12-07T14:45:46;98364.81;;;-0.35;99.25
73594;BME280;64760;53.404;23.498;2022-12-07T14:48:14;98350.81;;;-0.43;99.00
73594;BME280;64760;53.404;23.498;2022-12-07T14:50:49;98366.13;;;-0.39;99.38
73594;BME280;64760;53.404;23.498;2022-12-07T14:53:17;98359.41;;;-0.41;99.18
73594;BME280;64760;53.404;23.498;2022-12-07T14:55:45;98364.19;;;-0.29;99.50
73594;BME280;64760;53.404;23.498;2022-12-07T14:58:14;98365.50;;;-0.33;99.28
73594;BME280;64760;53.404;23.498;2022-12-07T15:00:41;98355.28;;;-0.44;99.30
73594;BME280;64760;53.404;23.498;2022-12-07T15:03:07;98367.13;;;-0.32;99.51
73594;BME280;64760;53.404;23.498;2022-12-07T15:05:34;98351.47;;;-0.50;99.28
73594;BME280;64760;53.404;23.498;2022-12-07T15:08:01;98337.66;;;-0.43;98.88
73594;BME280;64760;53.404;23.498;2022-12-07T15:10:30;98356.63;;;-0.40;99.00
73594;BME280;64760;53.404;23.498;2022-12-07T15:12:58;98361.34;;;-0.43;98.87
73594;BME280;64760;53.404;23.498;2022-12-07T15:15:44;98373.56;;;-0.34;98.91
73594;BME280;64760;53.404;23.498;2022-12-07T15:18:10;98382.75;;;-0.38;99.53
73594;BME280;64760;53.404;23.498;2022-12-07T15:20:37;98359.03;;;-0.55;99.71
73594;BME280;64760;53.404;23.498;2022-12-07T15:23:03;98377.81;;;-0.41;99.39